sensor_id;sensor_type;location;lat;lon;timestamp;P1;durP1;ratioP1;P2;durP2;ratioP2
11539;SDS011;5826;54.756;9.192;2023-04-24T00:01:11;5.88;;;4.97;;
11539;SDS011;5826;54.756;9.192;2023-04-24T00:03:37;6.00;;;5.50;;
11539;SDS011;5826;54.756;9.192;2023-04-24T00:06:03;5.32;;;4.82;;
11539;SDS011;5826;54.756;9.192;2023-04-24T00:08:31;6.28;;;5.78;;
11539;SDS011;5826;54.756;9.192;2023-04-24T00:10:57;5.57;;;4.93;;
11539;SDS011;5826;54.756;9.192;2023-04-24T00:13:22;5.68;;;5.07;;
11539;SDS011;5826;54.756;9.192;2023-04-24T00:15:48;6.10;;;5.50;;
11539;SDS011;5826;54.756;9.192;2023-04-24T00:18:14;5.60;;;5.10;;
11539;SDS011;5826;54.756;9.192;2023-04-24T00:20:39;5.40;;;4.90;;
11539;SDS011;5826;54.756;9.192;2023-04-24T00:23:05;5.63;;;5.13;;
11539;SDS011;5826;54.756;9.192;2023-04-24T00:25:31;5.53;;;5.03;;
11539;SDS011;5826;54.756;9.192;2023-04-24T00:27:56;5.50;;;4.93;;
11539;SDS011;5826;54.756;9.192;2023-04-24T00:30:22;4.88;;;4.47;;
11539;SDS011;5826;54.756;9.192;2023-04-24T00:32:47;4.60;;;4.20;;
11539;SDS011;5826;54.756;9.192;2023-04-24T00:35:13;4.97;;;4.47;;
11539;SDS011;5826;54.756;9.192;2023-04-24T00:37:39;4.55;;;4.15;;
11539;SDS011;5826;54.756;9.192;2023-04-24T00:40:05;5.10;;;4.55;;
11539;SDS011;5826;54.756;9.192;2023-04-24T00:42:31;6.30;;;5.13;;
11539;SDS011;5826;54.756;9.192;2023-04-24T00:44:57;5.10;;;4.60;;
11539;SDS011;5826;54.756;9.192;2023-04-24T00:47:24;4.60;;;4.20;;
11539;SDS011;5826;54.756;9.192;2023-04-24T00:49:50;4.63;;;4.22;;
11539;SDS011;5826;54.756;9.192;2023-04-24T00:52:16;5.20;;;4.70;;
11539;SDS011;5826;54.756;9.192;2023-04-24T00:54:43;5.00;;;4.50;;
11539;SDS011;5826;54.756;9.192;2023-04-24T00:57:10;5.47;;;4.60;;
11539;SDS011;5826;54.756;9.192;2023-04-24T00:59:35;5.18;;;4.68;;
11539;SDS011;5826;54.756;9.192;2023-04-24T01:02:02;4.93;;;4.53;;
11539;SDS011;5826;54.756;9.192;2023-04-24T01:04:28;5.03;;;4.55;;
11539;SDS011;5826;54.756;9.192;2023-04-24T01:06:54;4.80;;;4.40;;
11539;SDS011;5826;54.756;9.192;2023-04-24T01:09:21;5.05;;;4.55;;
11539;SDS011;5826;54.756;9.192;2023-04-24T01:11:48;5.00;;;4.30;;
11539;SDS011;5826;54.756;9.192;2023-04-24T01:14:14;4.65;;;4.25;;
11539;SDS011;5826;54.756;9.192;2023-04-24T01:16:40;4.50;;;4.10;;
11539;SDS011;5826;54.756;9.192;2023-04-24T01:19:06;5.13;;;4.72;;
11539;SDS011;5826;54.756;9.192;2023-04-24T01:21:34;4.78;;;4.30;;
11539;SDS011;5826;54.756;9.192;2023-04-24T01:24:01;5.07;;;4.57;;
11539;SDS011;5826;54.756;9.192;2023-04-24T01:26:27;4.85;;;4.40;;
11539;SDS011;5826;54.756;9.192;2023-04-24T01:28:53;4.65;;;4.15;;
11539;SDS011;5826;54.756;9.192;2023-04-24T01:31:19;4.05;;;3.75;;
11539;SDS011;5826;54.756;9.192;2023-04-24T01:33:45;3.90;;;3.60;;
11539;SDS011;5826;54.756;9.192;2023-04-24T01:36:11;3.80;;;3.50;;
11539;SDS011;5826;54.756;9.192;2023-04-24T01:38:37;4.10;;;3.80;;
11539;SDS011;5826;54.756;9.192;2023-04-24T01:41:02;3.72;;;3.40;;
11539;SDS011;5826;54.756;9.192;2023-04-24T01:43:28;4.10;;;3.72;;
11539;SDS011;5826;54.756;9.192;2023-04-24T01:45:54;3.80;;;3.50;;
11539;SDS011;5826;54.756;9.192;2023-04-24T01:48:19;4.25;;;3.85;;
11539;SDS011;5826;54.756;9.192;2023-04-24T01:50:45;3.90;;;3.50;;
11539;SDS011;5826;54.756;9.192;2023-04-24T01:53:11;3.60;;;3.30;;
11539;SDS011;5826;54.756;9.192;2023-04-24T01:55:36;3.95;;;3.65;;
11539;SDS011;5826;54.756;9.192;2023-04-24T01:58:02;3.92;;;3.60;;
11539;SDS011;5826;54.756;9.192;2023-04-24T02:00:28;3.75;;;3.45;;
11539;SDS011;5826;54.756;9.192;2023-04-24T02:02:53;4.00;;;3.70;;
11539;SDS011;5826;54.756;9.192;2023-04-24T02:05:19;4.47;;;4.07;;
11539;SDS011;5826;54.756;9.192;2023-04-24T02:07:44;4.18;;;3.78;;
11539;SDS011;5826;54.756;9.192;2023-04-24T02:10:10;4.30;;;3.90;;
11539;SDS011;5826;54.756;9.192;2023-04-24T02:12:36;4.15;;;3.78;;
11539;SDS011;5826;54.756;9.192;2023-04-24T02:15:02;3.97;;;3.65;;
11539;SDS011;5826;54.756;9.192;2023-04-24T02:17:27;3.50;;;3.20;;
11539;SDS011;5826;54.756;9.192;2023-04-24T02:19:53;4.15;;;3.70;;
11539;SDS011;5826;54.756;9.192;2023-04-24T02:22:18;4.75;;;4.25;;
11539;SDS011;5826;54.756;9.192;2023-04-24T02:24:44;4.63;;;4.20;;
11539;SDS011;5826;54.756;9.192;2023-04-24T02:27:10;4.47;;;4.07;;
11539;SDS011;5826;54.756;9.192;2023-04-24T02:29:36;4.85;;;4.45;;
11539;SDS011;5826;54.756;9.192;2023-04-24T02:32:02;5.05;;;4.63;;
11539;SDS011;5826;54.756;9.192;2023-04-24T02:34:27;5.18;;;4.78;;
11539;SDS011;5826;54.756;9.192;2023-04-24T02:36:53;4.70;;;4.30;;
11539;SDS011;5826;54.756;9.192;2023-04-24T02:39:21;5.03;;;4.25;;
11539;SDS011;5826;54.756;9.192;2023-04-24T02:41:47;5.15;;;4.75;;
11539;SDS011;5826;54.756;9.192;2023-04-24T02:44:12;4.80;;;4.40;;
11539;SDS011;5826;54.756;9.192;2023-04-24T02:46:38;4.90;;;4.40;;
11539;SDS011;5826;54.756;9.192;2023-04-24T02:49:06;5.28;;;4.78;;
11539;SDS011;5826;54.756;9.192;2023-04-24T02:51:31;4.85;;;4.45;;
11539;SDS011;5826;54.756;9.192;2023-04-24T02:53:57;5.78;;;5.18;;
11539;SDS011;5826;54.756;9.192;2023-04-24T02:56:22;4.90;;;4.43;;
11539;SDS011;5826;54.756;9.192;2023-04-24T02:58:47;4.70;;;4.30;;
11539;SDS011;5826;54.756;9.192;2023-04-24T03:01:13;5.30;;;4.80;;
11539;SDS011;5826;54.756;9.192;2023-04-24T03:03:39;5.25;;;4.80;;
11539;SDS011;5826;54.756;9.192;2023-04-24T03:06:04;5.18;;;4.63;;
11539;SDS011;5826;54.756;9.192;2023-04-24T03:08:31;5.82;;;5.28;;
11539;SDS011;5826;54.756;9.192;2023-04-24T03:10:57;5.50;;;5.00;;
11539;SDS011;5826;54.756;9.192;2023-04-24T03:13:22;5.50;;;5.00;;
11539;SDS011;5826;54.756;9.192;2023-04-24T03:15:48;5.70;;;5.20;;
11539;SDS011;5826;54.756;9.192;2023-04-24T03:18:13;5.55;;;5.07;;
11539;SDS011;5826;54.756;9.192;2023-04-24T03:20:39;5.30;;;4.90;;
11539;SDS011;5826;54.756;9.192;2023-04-24T03:23:04;5.97;;;5.47;;
11539;SDS011;5826;54.756;9.192;2023-04-24T03:25:30;5.55;;;5.05;;
11539;SDS011;5826;54.756;9.192;2023-04-24T03:27:55;6.00;;;5.40;;
11539;SDS011;5826;54.756;9.192;2023-04-24T03:30:21;4.65;;;4.25;;
11539;SDS011;5826;54.756;9.192;2023-04-24T03:32:46;5.38;;;4.88;;
11539;SDS011;5826;54.756;9.192;2023-04-24T03:35:12;5.18;;;4.68;;
11539;SDS011;5826;54.756;9.192;2023-04-24T03:37:37;4.85;;;4.45;;
11539;SDS011;5826;54.756;9.192;2023-04-24T03:40:03;6.00;;;5.40;;
11539;SDS011;5826;54.756;9.192;2023-04-24T03:42:30;6.30;;;5.28;;
11539;SDS011;5826;54.756;9.192;2023-04-24T03:44:56;6.07;;;5.47;;
11539;SDS011;5826;54.756;9.192;2023-04-24T03:47:21;5.82;;;5.22;;
11539;SDS011;5826;54.756;9.192;2023-04-24T03:49:47;6.80;;;6.00;;
11539;SDS011;5826;54.756;9.192;2023-04-24T03:52:12;5.03;;;4.63;;
11539;SDS011;5826;54.756;9.192;2023-04-24T03:54:38;5.90;;;5.40;;
11539;SDS011;5826;54.756;9.192;2023-04-24T03:57:03;6.05;;;5.55;;
11539;SDS011;5826;54.756;9.192;2023-04-24T03:59:29;6.55;;;5.95;;
11539;SDS011;5826;54.756;9.192;2023-04-24T04:01:55;5.72;;;5.22;;
11539;SDS011;5826;54.756;9.192;2023-04-24T04:04:21;6.47;;;5.88;;
11539;SDS011;5826;54.756;9.192;2023-04-24T04:06:46;6.05;;;5.55;;
11539;SDS011;5826;54.756;9.192;2023-04-24T04:09:12;6.05;;;5.45;;
11539;SDS011;5826;54.756;9.192;2023-04-24T04:11:37;5.80;;;5.30;;
11539;SDS011;5826;54.756;9.192;2023-04-24T04:14:03;6.50;;;5.93;;
11539;SDS011;5826;54.756;9.192;2023-04-24T04:16:28;8.63;;;7.82;;
11539;SDS011;5826;54.756;9.192;2023-04-24T04:18:54;6.05;;;5.55;;
11539;SDS011;5826;54.756;9.192;2023-04-24T04:21:20;5.00;;;4.60;;
11539;SDS011;5826;54.756;9.192;2023-04-24T04:23:46;5.72;;;5.32;;
11539;SDS011;5826;54.756;9.192;2023-04-24T04:26:11;7.22;;;6.53;;
11539;SDS011;5826;54.756;9.192;2023-04-24T04:28:39;5.70;;;5.20;;
11539;SDS011;5826;54.756;9.192;2023-04-24T04:31:05;6.55;;;5.95;;
11539;SDS011;5826;54.756;9.192;2023-04-24T04:33:32;5.50;;;5.10;;
11539;SDS011;5826;54.756;9.192;2023-04-24T04:35:58;4.88;;;4.47;;
11539;SDS011;5826;54.756;9.192;2023-04-24T04:38:24;5.57;;;5.10;;
11539;SDS011;5826;54.756;9.192;2023-04-24T04:40:54;3.78;;;3.47;;
11539;SDS011;5826;54.756;9.192;2023-04-24T04:43:21;3.38;;;3.08;;
11539;SDS011;5826;54.756;9.192;2023-04-24T04:45:48;3.35;;;3.05;;
11539;SDS011;5826;54.756;9.192;2023-04-24T04:48:16;3.17;;;2.88;;
11539;SDS011;5826;54.756;9.192;2023-04-24T04:50:42;2.88;;;2.67;;
11539;SDS011;5826;54.756;9.192;2023-04-24T04:53:08;2.90;;;2.70;;
11539;SDS011;5826;54.756;9.192;2023-04-24T04:55:33;2.60;;;2.40;;
11539;SDS011;5826;54.756;9.192;2023-04-24T04:57:59;2.47;;;2.28;;
11539;SDS011;5826;54.756;9.192;2023-04-24T05:00:25;2.90;;;2.70;;
11539;SDS011;5826;54.756;9.192;2023-04-24T05:02:52;2.28;;;2.00;;
11539;SDS011;5826;54.756;9.192;2023-04-24T05:05:17;2.17;;;2.05;;
11539;SDS011;5826;54.756;9.192;2023-04-24T05:07:43;2.58;;;2.00;;
11539;SDS011;5826;54.756;9.192;2023-04-24T05:10:09;1.83;;;1.73;;
11539;SDS011;5826;54.756;9.192;2023-04-24T05:12:35;1.98;;;1.85;;
11539;SDS011;5826;54.756;9.192;2023-04-24T05:15:01;2.55;;;1.90;;
11539;SDS011;5826;54.756;9.192;2023-04-24T05:17:27;1.50;;;1.40;;
11539;SDS011;5826;54.756;9.192;2023-04-24T05:19:53;1.40;;;1.30;;
11539;SDS011;5826;54.756;9.192;2023-04-24T05:22:18;1.50;;;1.40;;
11539;SDS011;5826;54.756;9.192;2023-04-24T05:24:45;2.80;;;1.73;;
11539;SDS011;5826;54.756;9.192;2023-04-24T05:27:12;1.80;;;1.70;;
11539;SDS011;5826;54.756;9.192;2023-04-24T05:29:37;1.98;;;1.88;;
11539;SDS011;5826;54.756;9.192;2023-04-24T05:32:03;1.95;;;1.85;;
11539;SDS011;5826;54.756;9.192;2023-04-24T05:34:28;2.80;;;2.60;;
11539;SDS011;5826;54.756;9.192;2023-04-24T05:36:54;2.97;;;2.10;;
11539;SDS011;5826;54.756;9.192;2023-04-24T05:39:19;2.00;;;1.90;;
11539;SDS011;5826;54.756;9.192;2023-04-24T05:41:45;2.67;;;2.47;;
11539;SDS011;5826;54.756;9.192;2023-04-24T05:44:10;2.50;;;2.30;;
11539;SDS011;5826;54.756;9.192;2023-04-24T05:46:36;2.20;;;2.00;;
11539;SDS011;5826;54.756;9.192;2023-04-24T05:49:02;3.55;;;2.80;;
11539;SDS011;5826;54.756;9.192;2023-04-24T05:51:27;2.00;;;1.60;;
11539;SDS011;5826;54.756;9.192;2023-04-24T05:53:53;2.45;;;2.25;;
11539;SDS011;5826;54.756;9.192;2023-04-24T05:56:19;1.70;;;1.60;;
11539;SDS011;5826;54.756;9.192;2023-04-24T05:58:45;2.85;;;2.15;;
11539;SDS011;5826;54.756;9.192;2023-04-24T06:01:11;2.78;;;2.58;;
11539;SDS011;5826;54.756;9.192;2023-04-24T06:03:38;1.98;;;1.88;;
11539;SDS011;5826;54.756;9.192;2023-04-24T06:06:04;1.75;;;1.65;;
11539;SDS011;5826;54.756;9.192;2023-04-24T06:08:30;2.08;;;1.88;;
11539;SDS011;5826;54.756;9.192;2023-04-24T06:10:56;2.33;;;2.13;;
11539;SDS011;5826;54.756;9.192;2023-04-24T06:13:22;2.95;;;2.40;;
11539;SDS011;5826;54.756;9.192;2023-04-24T06:15:47;1.50;;;1.40;;
11539;SDS011;5826;54.756;9.192;2023-04-24T06:18:13;2.75;;;2.28;;
11539;SDS011;5826;54.756;9.192;2023-04-24T06:20:38;1.80;;;1.70;;
11539;SDS011;5826;54.756;9.192;2023-04-24T06:23:04;2.00;;;1.65;;
11539;SDS011;5826;54.756;9.192;2023-04-24T06:25:30;1.67;;;1.58;;
11539;SDS011;5826;54.756;9.192;2023-04-24T06:27:56;3.08;;;2.88;;
11539;SDS011;5826;54.756;9.192;2023-04-24T06:30:22;2.92;;;1.85;;
11539;SDS011;5826;54.756;9.192;2023-04-24T06:32:47;2.63;;;2.20;;
11539;SDS011;5826;54.756;9.192;2023-04-24T06:35:13;1.67;;;1.50;;
11539;SDS011;5826;54.756;9.192;2023-04-24T06:37:39;2.38;;;1.80;;
11539;SDS011;5826;54.756;9.192;2023-04-24T06:40:06;2.13;;;2.00;;
11539;SDS011;5826;54.756;9.192;2023-04-24T06:42:32;1.70;;;1.60;;
11539;SDS011;5826;54.756;9.192;2023-04-24T06:44:57;2.08;;;1.98;;
11539;SDS011;5826;54.756;9.192;2023-04-24T06:47:23;2.50;;;2.30;;
11539;SDS011;5826;54.756;9.192;2023-04-24T06:49:48;3.08;;;2.78;;
11539;SDS011;5826;54.756;9.192;2023-04-24T06:52:15;2.72;;;2.50;;
11539;SDS011;5826;54.756;9.192;2023-04-24T06:54:41;2.63;;;2.42;;
11539;SDS011;5826;54.756;9.192;2023-04-24T06:57:07;2.58;;;2.38;;
11539;SDS011;5826;54.756;9.192;2023-04-24T06:59:33;2.30;;;1.85;;
11539;SDS011;5826;54.756;9.192;2023-04-24T07:01:58;2.60;;;2.40;;
11539;SDS011;5826;54.756;9.192;2023-04-24T07:04:24;2.05;;;1.92;;
11539;SDS011;5826;54.756;9.192;2023-04-24T07:06:50;2.45;;;2.25;;
11539;SDS011;5826;54.756;9.192;2023-04-24T07:09:16;3.40;;;2.80;;
11539;SDS011;5826;54.756;9.192;2023-04-24T07:11:43;2.63;;;2.42;;
11539;SDS011;5826;54.756;9.192;2023-04-24T07:14:09;2.55;;;2.35;;
11539;SDS011;5826;54.756;9.192;2023-04-24T07:16:35;3.63;;;2.83;;
11539;SDS011;5826;54.756;9.192;2023-04-24T07:19:00;2.70;;;2.50;;
11539;SDS011;5826;54.756;9.192;2023-04-24T07:21:26;2.05;;;1.95;;
11539;SDS011;5826;54.756;9.192;2023-04-24T07:23:52;2.13;;;1.92;;
11539;SDS011;5826;54.756;9.192;2023-04-24T07:26:17;3.70;;;3.40;;
11539;SDS011;5826;54.756;9.192;2023-04-24T07:28:43;3.10;;;2.80;;
11539;SDS011;5826;54.756;9.192;2023-04-24T07:31:08;4.03;;;3.72;;
11539;SDS011;5826;54.756;9.192;2023-04-24T07:33:35;2.88;;;2.67;;
11539;SDS011;5826;54.756;9.192;2023-04-24T07:36:01;2.50;;;2.30;;
11539;SDS011;5826;54.756;9.192;2023-04-24T07:38:29;3.00;;;2.63;;
11539;SDS011;5826;54.756;9.192;2023-04-24T07:40:55;3.72;;;3.30;;
11539;SDS011;5826;54.756;9.192;2023-04-24T07:43:20;2.92;;;2.65;;
11539;SDS011;5826;54.756;9.192;2023-04-24T07:45:46;2.30;;;2.10;;
11539;SDS011;5826;54.756;9.192;2023-04-24T07:48:12;2.28;;;2.15;;
11539;SDS011;5826;54.756;9.192;2023-04-24T07:50:41;2.80;;;2.60;;
11539;SDS011;5826;54.756;9.192;2023-04-24T07:53:06;4.00;;;3.38;;
11539;SDS011;5826;54.756;9.192;2023-04-24T07:55:32;3.33;;;3.03;;
11539;SDS011;5826;54.756;9.192;2023-04-24T07:57:57;3.00;;;2.70;;
11539;SDS011;5826;54.756;9.192;2023-04-24T08:00:23;3.80;;;3.40;;
11539;SDS011;5826;54.756;9.192;2023-04-24T08:02:49;4.78;;;4.05;;
11539;SDS011;5826;54.756;9.192;2023-04-24T08:05:14;3.92;;;3.60;;
11539;SDS011;5826;54.756;9.192;2023-04-24T08:07:40;4.65;;;4.20;;
11539;SDS011;5826;54.756;9.192;2023-04-24T08:10:07;3.60;;;3.30;;
11539;SDS011;5826;54.756;9.192;2023-04-24T08:12:35;5.03;;;4.53;;
11539;SDS011;5826;54.756;9.192;2023-04-24T08:15:01;4.38;;;3.97;;
11539;SDS011;5826;54.756;9.192;2023-04-24T08:17:27;4.88;;;4.45;;
11539;SDS011;5826;54.756;9.192;2023-04-24T08:19:53;4.65;;;4.25;;
11539;SDS011;5826;54.756;9.192;2023-04-24T08:22:26;4.50;;;4.05;;
11539;SDS011;5826;54.756;9.192;2023-04-24T08:24:52;5.57;;;3.22;;
11539;SDS011;5826;54.756;9.192;2023-04-24T08:27:17;4.03;;;3.10;;
11539;SDS011;5826;54.756;9.192;2023-04-24T08:29:43;2.58;;;2.38;;
11539;SDS011;5826;54.756;9.192;2023-04-24T08:32:08;3.72;;;3.05;;
11539;SDS011;5826;54.756;9.192;2023-04-24T08:34:34;3.47;;;3.17;;
11539;SDS011;5826;54.756;9.192;2023-04-24T08:36:59;2.50;;;2.30;;
11539;SDS011;5826;54.756;9.192;2023-04-24T08:39:25;3.10;;;2.80;;
11539;SDS011;5826;54.756;9.192;2023-04-24T08:41:50;3.72;;;3.30;;
11539;SDS011;5826;54.756;9.192;2023-04-24T08:44:18;3.20;;;2.90;;
11539;SDS011;5826;54.756;9.192;2023-04-24T08:46:44;3.28;;;2.97;;
11539;SDS011;5826;54.756;9.192;2023-04-24T08:49:13;4.03;;;3.50;;
11539;SDS011;5826;54.756;9.192;2023-04-24T08:51:41;4.78;;;3.30;;
11539;SDS011;5826;54.756;9.192;2023-04-24T08:54:07;3.92;;;3.28;;
11539;SDS011;5826;54.756;9.192;2023-04-24T08:56:33;4.40;;;3.90;;
11539;SDS011;5826;54.756;9.192;2023-04-24T08:59:04;4.50;;;4.10;;
11539;SDS011;5826;54.756;9.192;2023-04-24T09:01:30;5.13;;;4.63;;
11539;SDS011;5826;54.756;9.192;2023-04-24T09:03:58;4.43;;;3.30;;
11539;SDS011;5826;54.756;9.192;2023-04-24T09:06:27;3.85;;;3.55;;
11539;SDS011;5826;54.756;9.192;2023-04-24T09:08:53;4.72;;;3.40;;
11539;SDS011;5826;54.756;9.192;2023-04-24T09:11:19;4.32;;;3.80;;
11539;SDS011;5826;54.756;9.192;2023-04-24T09:13:44;3.50;;;3.20;;
11539;SDS011;5826;54.756;9.192;2023-04-24T09:16:11;4.25;;;3.85;;
11539;SDS011;5826;54.756;9.192;2023-04-24T09:18:36;3.53;;;3.22;;
11539;SDS011;5826;54.756;9.192;2023-04-24T09:21:03;4.20;;;3.80;;
11539;SDS011;5826;54.756;9.192;2023-04-24T09:23:31;3.45;;;3.15;;
11539;SDS011;5826;54.756;9.192;2023-04-24T09:25:58;3.70;;;3.40;;
11539;SDS011;5826;54.756;9.192;2023-04-24T09:31:04;2.60;;;2.40;;
11539;SDS011;5826;54.756;9.192;2023-04-24T09:33:32;2.42;;;2.22;;
11539;SDS011;5826;54.756;9.192;2023-04-24T09:35:57;2.63;;;2.42;;
11539;SDS011;5826;54.756;9.192;2023-04-24T09:41:02;2.20;;;2.00;;
11539;SDS011;5826;54.756;9.192;2023-04-24T09:43:29;2.28;;;2.08;;
11539;SDS011;5826;54.756;9.192;2023-04-24T09:45:56;2.97;;;2.40;;
11539;SDS011;5826;54.756;9.192;2023-04-24T09:48:29;3.40;;;2.40;;
11539;SDS011;5826;54.756;9.192;2023-04-24T09:50:58;2.45;;;2.25;;
11539;SDS011;5826;54.756;9.192;2023-04-24T09:53:25;1.90;;;1.80;;
11539;SDS011;5826;54.756;9.192;2023-04-24T09:55:52;2.55;;;2.35;;
11539;SDS011;5826;54.756;9.192;2023-04-24T09:58:18;3.63;;;3.33;;
11539;SDS011;5826;54.756;9.192;2023-04-24T10:00:53;3.63;;;3.33;;
11539;SDS011;5826;54.756;9.192;2023-04-24T10:03:21;2.92;;;2.63;;
11539;SDS011;5826;54.756;9.192;2023-04-24T10:05:51;3.45;;;3.00;;
11539;SDS011;5826;54.756;9.192;2023-04-24T10:08:17;5.18;;;4.25;;
11539;SDS011;5826;54.756;9.192;2023-04-24T10:10:43;3.70;;;2.78;;
11539;SDS011;5826;54.756;9.192;2023-04-24T10:13:11;4.95;;;4.13;;
11539;SDS011;5826;54.756;9.192;2023-04-24T10:15:38;2.90;;;2.70;;
11539;SDS011;5826;54.756;9.192;2023-04-24T10:18:05;4.00;;;3.60;;
11539;SDS011;5826;54.756;9.192;2023-04-24T10:20:32;4.40;;;4.00;;
11539;SDS011;5826;54.756;9.192;2023-04-24T10:22:58;3.78;;;2.75;;
11539;SDS011;5826;54.756;9.192;2023-04-24T10:25:26;5.65;;;4.00;;
11539;SDS011;5826;54.756;9.192;2023-04-24T10:27:53;3.88;;;3.53;;
11539;SDS011;5826;54.756;9.192;2023-04-24T10:30:26;4.63;;;4.22;;
11539;SDS011;5826;54.756;9.192;2023-04-24T10:32:53;4.15;;;3.75;;
11539;SDS011;5826;54.756;9.192;2023-04-24T10:35:19;3.88;;;3.58;;
11539;SDS011;5826;54.756;9.192;2023-04-24T10:37:50;5.60;;;4.53;;
11539;SDS011;5826;54.756;9.192;2023-04-24T10:40:26;4.07;;;3.67;;
11539;SDS011;5826;54.756;9.192;2023-04-24T10:42:54;3.17;;;2.70;;
11539;SDS011;5826;54.756;9.192;2023-04-24T10:45:21;4.25;;;3.85;;
11539;SDS011;5826;54.756;9.192;2023-04-24T10:48:07;3.03;;;2.70;;
11539;SDS011;5826;54.756;9.192;2023-04-24T10:50:44;3.47;;;3.20;;
11539;SDS011;5826;54.756;9.192;2023-04-24T10:53:18;2.80;;;2.60;;
11539;SDS011;5826;54.756;9.192;2023-04-24T10:55:46;2.97;;;2.67;;
11539;SDS011;5826;54.756;9.192;2023-04-24T10:58:13;2.78;;;2.58;;
11539;SDS011;5826;54.756;9.192;2023-04-24T11:00:40;3.28;;;2.97;;
11539;SDS011;5826;54.756;9.192;2023-04-24T11:03:07;3.13;;;2.50;;
11539;SDS011;5826;54.756;9.192;2023-04-24T11:08:22;2.50;;;2.30;;
11539;SDS011;5826;54.756;9.192;2023-04-24T11:13:22;4.03;;;3.63;;
11539;SDS011;5826;54.756;9.192;2023-04-24T11:16:11;4.65;;;4.25;;
11539;SDS011;5826;54.756;9.192;2023-04-24T11:18:38;3.65;;;3.35;;
11539;SDS011;5826;54.756;9.192;2023-04-24T11:21:11;4.85;;;3.75;;
11539;SDS011;5826;54.756;9.192;2023-04-24T11:23:37;3.55;;;3.08;;
11539;SDS011;5826;54.756;9.192;2023-04-24T11:26:10;3.05;;;2.65;;
11539;SDS011;5826;54.756;9.192;2023-04-24T11:28:48;4.32;;;3.92;;
11539;SDS011;5826;54.756;9.192;2023-04-24T11:34:05;3.13;;;2.85;;
11539;SDS011;5826;54.756;9.192;2023-04-24T11:36:31;4.32;;;3.95;;
11539;SDS011;5826;54.756;9.192;2023-04-24T11:38:57;3.30;;;2.90;;
11539;SDS011;5826;54.756;9.192;2023-04-24T11:41:23;2.53;;;2.33;;
11539;SDS011;5826;54.756;9.192;2023-04-24T11:43:50;2.95;;;2.72;;
11539;SDS011;5826;54.756;9.192;2023-04-24T11:46:17;3.17;;;2.88;;
11539;SDS011;5826;54.756;9.192;2023-04-24T11:48:46;3.20;;;2.90;;
11539;SDS011;5826;54.756;9.192;2023-04-24T11:51:12;2.38;;;2.17;;
11539;SDS011;5826;54.756;9.192;2023-04-24T11:53:40;3.72;;;3.42;;
11539;SDS011;5826;54.756;9.192;2023-04-24T11:56:06;3.88;;;3.50;;
11539;SDS011;5826;54.756;9.192;2023-04-24T11:58:37;3.00;;;2.70;;
11539;SDS011;5826;54.756;9.192;2023-04-24T12:01:03;3.08;;;2.33;;
11539;SDS011;5826;54.756;9.192;2023-04-24T12:03:29;4.07;;;3.75;;
11539;SDS011;5826;54.756;9.192;2023-04-24T12:06:07;3.40;;;3.10;;
11539;SDS011;5826;54.756;9.192;2023-04-24T12:08:34;4.57;;;3.15;;
11539;SDS011;5826;54.756;9.192;2023-04-24T12:11:00;3.70;;;3.40;;
11539;SDS011;5826;54.756;9.192;2023-04-24T12:13:27;3.60;;;3.30;;
11539;SDS011;5826;54.756;9.192;2023-04-24T12:15:52;4.43;;;4.03;;
11539;SDS011;5826;54.756;9.192;2023-04-24T12:18:18;7.60;;;6.90;;
11539;SDS011;5826;54.756;9.192;2023-04-24T12:20:46;9.82;;;7.97;;
11539;SDS011;5826;54.756;9.192;2023-04-24T12:23:12;9.80;;;7.35;;
11539;SDS011;5826;54.756;9.192;2023-04-24T12:25:38;6.60;;;5.90;;
11539;SDS011;5826;54.756;9.192;2023-04-24T12:30:30;4.35;;;3.95;;
11539;SDS011;5826;54.756;9.192;2023-04-24T12:33:02;3.75;;;3.10;;
11539;SDS011;5826;54.756;9.192;2023-04-24T12:35:29;3.40;;;3.00;;
11539;SDS011;5826;54.756;9.192;2023-04-24T12:38:04;3.72;;;3.38;;
11539;SDS011;5826;54.756;9.192;2023-04-24T12:40:33;3.90;;;3.50;;
11539;SDS011;5826;54.756;9.192;2023-04-24T12:42:59;4.00;;;3.60;;
11539;SDS011;5826;54.756;9.192;2023-04-24T12:45:24;3.95;;;3.10;;
11539;SDS011;5826;54.756;9.192;2023-04-24T12:47:52;4.18;;;3.50;;
11539;SDS011;5826;54.756;9.192;2023-04-24T12:50:18;4.30;;;3.72;;
11539;SDS011;5826;54.756;9.192;2023-04-24T12:52:44;4.30;;;3.90;;
11539;SDS011;5826;54.756;9.192;2023-04-24T12:55:10;4.20;;;3.80;;
11539;SDS011;5826;54.756;9.192;2023-04-24T12:57:37;4.65;;;4.25;;
11539;SDS011;5826;54.756;9.192;2023-04-24T13:00:04;4.43;;;3.88;;
11539;SDS011;5826;54.756;9.192;2023-04-24T13:02:31;4.47;;;3.75;;
11539;SDS011;5826;54.756;9.192;2023-04-24T13:04:57;3.45;;;3.15;;
11539;SDS011;5826;54.756;9.192;2023-04-24T13:07:23;2.92;;;2.72;;
11539;SDS011;5826;54.756;9.192;2023-04-24T13:09:49;2.88;;;2.55;;
11539;SDS011;5826;54.756;9.192;2023-04-24T13:12:16;3.28;;;2.70;;
11539;SDS011;5826;54.756;9.192;2023-04-24T13:14:42;2.05;;;1.90;;
11539;SDS011;5826;54.756;9.192;2023-04-24T13:17:07;2.20;;;2.00;;
11539;SDS011;5826;54.756;9.192;2023-04-24T13:19:37;3.20;;;2.90;;
11539;SDS011;5826;54.756;9.192;2023-04-24T13:22:08;3.47;;;2.30;;
11539;SDS011;5826;54.756;9.192;2023-04-24T13:24:34;3.00;;;2.80;;
11539;SDS011;5826;54.756;9.192;2023-04-24T13:27:00;3.58;;;3.00;;
11539;SDS011;5826;54.756;9.192;2023-04-24T13:29:27;3.90;;;3.60;;
11539;SDS011;5826;54.756;9.192;2023-04-24T13:31:53;3.13;;;2.92;;
11539;SDS011;5826;54.756;9.192;2023-04-24T13:34:22;3.95;;;3.65;;
11539;SDS011;5826;54.756;9.192;2023-04-24T13:36:50;2.92;;;2.65;;
11539;SDS011;5826;54.756;9.192;2023-04-24T13:39:16;3.20;;;2.58;;
11539;SDS011;5826;54.756;9.192;2023-04-24T13:41:41;2.55;;;2.35;;
11539;SDS011;5826;54.756;9.192;2023-04-24T13:44:07;3.08;;;2.78;;
11539;SDS011;5826;54.756;9.192;2023-04-24T13:46:33;3.30;;;3.00;;
11539;SDS011;5826;54.756;9.192;2023-04-24T13:48:59;2.58;;;2.38;;
11539;SDS011;5826;54.756;9.192;2023-04-24T13:51:25;2.88;;;2.40;;
11539;SDS011;5826;54.756;9.192;2023-04-24T13:53:54;2.78;;;2.47;;
11539;SDS011;5826;54.756;9.192;2023-04-24T13:56:20;2.00;;;1.80;;
11539;SDS011;5826;54.756;9.192;2023-04-24T13:58:46;2.80;;;2.60;;
11539;SDS011;5826;54.756;9.192;2023-04-24T14:01:12;3.28;;;1.92;;
11539;SDS011;5826;54.756;9.192;2023-04-24T14:03:38;2.63;;;1.90;;
11539;SDS011;5826;54.756;9.192;2023-04-24T14:06:03;2.67;;;2.13;;
11539;SDS011;5826;54.756;9.192;2023-04-24T14:08:29;3.17;;;2.70;;
11539;SDS011;5826;54.756;9.192;2023-04-24T14:10:54;4.60;;;3.38;;
11539;SDS011;5826;54.756;9.192;2023-04-24T14:13:20;5.22;;;4.32;;
11539;SDS011;5826;54.756;9.192;2023-04-24T14:15:46;5.88;;;3.70;;
11539;SDS011;5826;54.756;9.192;2023-04-24T14:18:11;5.65;;;4.05;;
11539;SDS011;5826;54.756;9.192;2023-04-24T14:20:37;6.57;;;5.68;;
11539;SDS011;5826;54.756;9.192;2023-04-24T14:23:03;7.50;;;5.07;;
11539;SDS011;5826;54.756;9.192;2023-04-24T14:25:29;6.35;;;5.00;;
11539;SDS011;5826;54.756;9.192;2023-04-24T14:27:55;6.40;;;5.07;;
11539;SDS011;5826;54.756;9.192;2023-04-24T14:30:20;6.38;;;5.53;;
11539;SDS011;5826;54.756;9.192;2023-04-24T14:32:46;7.25;;;6.00;;
11539;SDS011;5826;54.756;9.192;2023-04-24T14:35:12;4.97;;;4.40;;
11539;SDS011;5826;54.756;9.192;2023-04-24T14:37:38;6.10;;;5.22;;
11539;SDS011;5826;54.756;9.192;2023-04-24T14:40:06;5.22;;;4.75;;
11539;SDS011;5826;54.756;9.192;2023-04-24T14:42:33;4.82;;;4.18;;
11539;SDS011;5826;54.756;9.192;2023-04-24T14:44:59;9.05;;;8.15;;
11539;SDS011;5826;54.756;9.192;2023-04-24T14:47:24;5.28;;;4.80;;
11539;SDS011;5826;54.756;9.192;2023-04-24T14:49:50;4.55;;;4.15;;
11539;SDS011;5826;54.756;9.192;2023-04-24T14:52:16;5.00;;;4.50;;
11539;SDS011;5826;54.756;9.192;2023-04-24T14:54:42;6.40;;;4.68;;
11539;SDS011;5826;54.756;9.192;2023-04-24T14:57:08;5.32;;;4.10;;
11539;SDS011;5826;54.756;9.192;2023-04-24T14:59:33;4.45;;;3.80;;
11539;SDS011;5826;54.756;9.192;2023-04-24T15:01:59;5.97;;;5.10;;
11539;SDS011;5826;54.756;9.192;2023-04-24T15:04:25;7.82;;;5.68;;
11539;SDS011;5826;54.756;9.192;2023-04-24T15:06:51;7.18;;;5.40;;
11539;SDS011;5826;54.756;9.192;2023-04-24T15:09:20;6.55;;;4.97;;
11539;SDS011;5826;54.756;9.192;2023-04-24T15:11:46;4.30;;;3.90;;